Hovedside
METAR-TAF:

METAR-TAF

Lufthavner :

Mitiga International Airport

Tripoli, Libya

breddegrad: 32-54N, lengdegrad: 13-17E, høyde over havet: 11 m

Gjeldene værobservasjon

Denne rapporten ble laget for 1 time og 4 minutter siden, klokken 16:50 UTC
Vind 9 kt fra Øst
Temperatur 26°C
Luftfuktighet 70%
Trykk 1015 hPa
Sikt: 8000 m
Skyfri himmel

METAR: HLLM 231650Z 08009KT 8000 SKC 26/20 Q1015

Tid: 19:54 (17:54 UTC)

Varsel

Denne rapporten ble laget for 12 timer og 54 minutter siden, klokken 05:00 UTC
Varsel gyldig fra 23. klokken 06 UTC til 24. klokken 06 UTC
Vind 2 kt fra skiftende retning
Sikt: 8000 m
Blir
fra 23. klokken 10 UTC til 23. klokken 12 UTC
Vind 10 kt fra Øst-nordøst

TAF: HLLM 230500Z 2306/2406 VRB02KT 8000 NSC BECMG 2310/2312 06010KT

Værobservasjoner og værvarsel for over 4000 flyplasser (METAR- og TAF-rapporter).

Tilgjengelige stasjoner er representert av de røde og gule prikkene på kartet.

Hold musepekeren over prikken for å se navnet på stasjonen.

Klikk så for å se værobservasjoner og -varsler.

For å forandre kartet kan du klikke på den grønne knappen med svart kryss for å zoome inn, på den grønne knappen med strek for å zoome ut, eller på de grønne pilene for å se tilstøtende kart.


METAR-TAF: